sensor_id;sensor_type;location;lat;lon;timestamp;temperature;humidity
16643;DHT22;8435;52.184;5.406;2023-11-19T00:00:25;16.00;99.90
16643;DHT22;8435;52.184;5.406;2023-11-19T00:02:52;16.00;99.90
16643;DHT22;8435;52.184;5.406;2023-11-19T00:05:24;16.00;99.90
16643;DHT22;8435;52.184;5.406;2023-11-19T00:07:54;16.00;99.90
16643;DHT22;8435;52.184;5.406;2023-11-19T00:10:21;16.00;99.90
16643;DHT22;8435;52.184;5.406;2023-11-19T00:12:49;16.00;99.90
16643;DHT22;8435;52.184;5.406;2023-11-19T00:15:18;16.00;99.90
16643;DHT22;8435;52.184;5.406;2023-11-19T00:17:46;16.00;99.90
16643;DHT22;8435;52.184;5.406;2023-11-19T00:20:14;16.00;99.90
16643;DHT22;8435;52.184;5.406;2023-11-19T00:22:43;16.00;99.90
16643;DHT22;8435;52.184;5.406;2023-11-19T00:25:13;16.00;99.90
16643;DHT22;8435;52.184;5.406;2023-11-19T00:27:39;16.00;99.90
16643;DHT22;8435;52.184;5.406;2023-11-19T00:30:10;16.00;99.90
16643;DHT22;8435;52.184;5.406;2023-11-19T00:32:37;16.00;99.90
16643;DHT22;8435;52.184;5.406;2023-11-19T00:35:05;16.00;99.90
16643;DHT22;8435;52.184;5.406;2023-11-19T00:37:32;16.00;99.90
16643;DHT22;8435;52.184;5.406;2023-11-19T00:39:59;16.00;99.90
16643;DHT22;8435;52.184;5.406;2023-11-19T00:42:27;16.00;99.90
16643;DHT22;8435;52.184;5.406;2023-11-19T00:44:54;16.00;99.90
16643;DHT22;8435;52.184;5.406;2023-11-19T00:47:21;15.90;99.90
16643;DHT22;8435;52.184;5.406;2023-11-19T00:49:48;16.00;99.90
16643;DHT22;8435;52.184;5.406;2023-11-19T00:52:15;16.00;99.90
16643;DHT22;8435;52.184;5.406;2023-11-19T00:54:42;16.00;99.90
16643;DHT22;8435;52.184;5.406;2023-11-19T00:57:09;15.90;99.90
16643;DHT22;8435;52.184;5.406;2023-11-19T00:59:37;16.00;99.90
16643;DHT22;8435;52.184;5.406;2023-11-19T01:02:04;16.00;99.90
16643;DHT22;8435;52.184;5.406;2023-11-19T01:04:33;16.00;99.90
16643;DHT22;8435;52.184;5.406;2023-11-19T01:07:01;15.90;99.90
16643;DHT22;8435;52.184;5.406;2023-11-19T01:09:30;15.90;99.90
16643;DHT22;8435;52.184;5.406;2023-11-19T01:11:58;15.90;99.90
16643;DHT22;8435;52.184;5.406;2023-11-19T01:14:26;16.00;99.90
16643;DHT22;8435;52.184;5.406;2023-11-19T01:16:55;16.00;99.90
16643;DHT22;8435;52.184;5.406;2023-11-19T01:19:27;15.90;99.90
16643;DHT22;8435;52.184;5.406;2023-11-19T01:21:54;16.00;99.90
16643;DHT22;8435;52.184;5.406;2023-11-19T01:24:22;16.00;99.90
16643;DHT22;8435;52.184;5.406;2023-11-19T01:26:48;16.00;99.90
16643;DHT22;8435;52.184;5.406;2023-11-19T01:29:15;16.00;99.90
16643;DHT22;8435;52.184;5.406;2023-11-19T01:31:43;16.00;99.90
16643;DHT22;8435;52.184;5.406;2023-11-19T01:34:11;15.90;99.90
16643;DHT22;8435;52.184;5.406;2023-11-19T01:36:38;15.90;99.90
16643;DHT22;8435;52.184;5.406;2023-11-19T01:39:05;15.90;99.90
16643;DHT22;8435;52.184;5.406;2023-11-19T01:41:34;15.90;99.90
16643;DHT22;8435;52.184;5.406;2023-11-19T01:44:02;15.90;99.90
16643;DHT22;8435;52.184;5.406;2023-11-19T01:46:29;15.90;99.90
16643;DHT22;8435;52.184;5.406;2023-11-19T01:48:59;15.90;99.90
16643;DHT22;8435;52.184;5.406;2023-11-19T01:51:28;15.90;99.90
16643;DHT22;8435;52.184;5.406;2023-11-19T01:53:55;15.90;99.90
16643;DHT22;8435;52.184;5.406;2023-11-19T01:56:24;15.90;99.90
16643;DHT22;8435;52.184;5.406;2023-11-19T01:58:52;15.90;99.90
16643;DHT22;8435;52.184;5.406;2023-11-19T02:01:20;15.90;99.90
16643;DHT22;8435;52.184;5.406;2023-11-19T02:03:47;15.90;99.90
16643;DHT22;8435;52.184;5.406;2023-11-19T02:06:14;15.80;99.90
16643;DHT22;8435;52.184;5.406;2023-11-19T02:08:42;15.80;99.90
16643;DHT22;8435;52.184;5.406;2023-11-19T02:11:10;15.80;99.90
16643;DHT22;8435;52.184;5.406;2023-11-19T02:13:38;15.80;99.90
16643;DHT22;8435;52.184;5.406;2023-11-19T02:16:06;15.80;99.90
16643;DHT22;8435;52.184;5.406;2023-11-19T02:18:34;15.80;99.90
16643;DHT22;8435;52.184;5.406;2023-11-19T02:21:01;15.70;99.90
16643;DHT22;8435;52.184;5.406;2023-11-19T02:23:28;15.70;99.90
16643;DHT22;8435;52.184;5.406;2023-11-19T02:26:03;15.70;99.90
16643;DHT22;8435;52.184;5.406;2023-11-19T02:28:33;15.60;99.90
16643;DHT22;8435;52.184;5.406;2023-11-19T02:31:00;15.60;99.90
16643;DHT22;8435;52.184;5.406;2023-11-19T02:33:27;15.50;99.90
16643;DHT22;8435;52.184;5.406;2023-11-19T02:35:54;15.50;99.90
16643;DHT22;8435;52.184;5.406;2023-11-19T02:38:21;15.40;99.90
16643;DHT22;8435;52.184;5.406;2023-11-19T02:40:48;15.40;99.90
16643;DHT22;8435;52.184;5.406;2023-11-19T02:43:15;15.40;99.90
16643;DHT22;8435;52.184;5.406;2023-11-19T02:45:44;15.40;99.90
16643;DHT22;8435;52.184;5.406;2023-11-19T02:48:11;15.30;99.90
16643;DHT22;8435;52.184;5.406;2023-11-19T02:50:39;15.30;99.90
16643;DHT22;8435;52.184;5.406;2023-11-19T02:53:06;15.20;99.90
16643;DHT22;8435;52.184;5.406;2023-11-19T02:55:33;15.20;99.90
16643;DHT22;8435;52.184;5.406;2023-11-19T02:58:03;15.10;99.90
16643;DHT22;8435;52.184;5.406;2023-11-19T03:00:35;15.20;99.90
16643;DHT22;8435;52.184;5.406;2023-11-19T03:03:08;15.10;99.90
16643;DHT22;8435;52.184;5.406;2023-11-19T03:05:45;15.20;99.90
16643;DHT22;8435;52.184;5.406;2023-11-19T03:08:14;15.10;99.90
16643;DHT22;8435;52.184;5.406;2023-11-19T03:10:41;15.10;99.90
16643;DHT22;8435;52.184;5.406;2023-11-19T03:13:11;15.10;99.90
16643;DHT22;8435;52.184;5.406;2023-11-19T03:15:39;15.10;99.90
16643;DHT22;8435;52.184;5.406;2023-11-19T03:18:06;15.10;99.90
16643;DHT22;8435;52.184;5.406;2023-11-19T03:20:34;15.00;99.90
16643;DHT22;8435;52.184;5.406;2023-11-19T03:23:01;15.00;99.90
16643;DHT22;8435;52.184;5.406;2023-11-19T03:25:28;15.00;99.90
16643;DHT22;8435;52.184;5.406;2023-11-19T03:27:59;15.00;99.90
16643;DHT22;8435;52.184;5.406;2023-11-19T03:30:26;14.90;99.90
16643;DHT22;8435;52.184;5.406;2023-11-19T03:32:53;14.80;99.90
16643;DHT22;8435;52.184;5.406;2023-11-19T03:35:21;14.80;99.90
16643;DHT22;8435;52.184;5.406;2023-11-19T03:37:49;14.80;99.90
16643;DHT22;8435;52.184;5.406;2023-11-19T03:40:16;14.80;99.90
16643;DHT22;8435;52.184;5.406;2023-11-19T03:42:44;14.80;99.90
16643;DHT22;8435;52.184;5.406;2023-11-19T03:45:11;14.70;99.90
16643;DHT22;8435;52.184;5.406;2023-11-19T03:47:38;14.70;99.90
16643;DHT22;8435;52.184;5.406;2023-11-19T03:50:06;14.70;99.90
16643;DHT22;8435;52.184;5.406;2023-11-19T03:52:33;14.60;99.90
16643;DHT22;8435;52.184;5.406;2023-11-19T03:55:02;14.70;99.90
16643;DHT22;8435;52.184;5.406;2023-11-19T03:57:30;14.60;99.90
16643;DHT22;8435;52.184;5.406;2023-11-19T03:59:56;14.50;99.90
16643;DHT22;8435;52.184;5.406;2023-11-19T04:02:24;14.50;99.90
16643;DHT22;8435;52.184;5.406;2023-11-19T04:04:53;14.50;99.90
16643;DHT22;8435;52.184;5.406;2023-11-19T04:07:20;14.50;99.90
16643;DHT22;8435;52.184;5.406;2023-11-19T04:09:47;14.40;99.90
16643;DHT22;8435;52.184;5.406;2023-11-19T04:12:15;14.40;99.90
16643;DHT22;8435;52.184;5.406;2023-11-19T04:14:42;14.40;99.90
16643;DHT22;8435;52.184;5.406;2023-11-19T04:17:09;14.30;99.90
16643;DHT22;8435;52.184;5.406;2023-11-19T04:19:36;14.30;99.90
16643;DHT22;8435;52.184;5.406;2023-11-19T04:22:03;14.30;99.90
16643;DHT22;8435;52.184;5.406;2023-11-19T04:24:30;14.30;99.90
16643;DHT22;8435;52.184;5.406;2023-11-19T04:26:57;14.30;99.90
16643;DHT22;8435;52.184;5.406;2023-11-19T04:29:25;14.20;99.90
16643;DHT22;8435;52.184;5.406;2023-11-19T04:31:52;14.30;99.90
16643;DHT22;8435;52.184;5.406;2023-11-19T04:34:19;14.20;99.90
16643;DHT22;8435;52.184;5.406;2023-11-19T04:36:45;14.20;99.90
16643;DHT22;8435;52.184;5.406;2023-11-19T04:39:12;14.20;99.90
16643;DHT22;8435;52.184;5.406;2023-11-19T04:41:47;14.20;99.90
16643;DHT22;8435;52.184;5.406;2023-11-19T04:44:14;14.20;99.90
16643;DHT22;8435;52.184;5.406;2023-11-19T04:46:42;14.10;99.90
16643;DHT22;8435;52.184;5.406;2023-11-19T04:49:09;14.10;99.90
16643;DHT22;8435;52.184;5.406;2023-11-19T04:51:38;14.10;99.90
16643;DHT22;8435;52.184;5.406;2023-11-19T04:54:06;14.10;99.90
16643;DHT22;8435;52.184;5.406;2023-11-19T04:56:34;14.10;99.90
16643;DHT22;8435;52.184;5.406;2023-11-19T04:59:01;14.10;99.90
16643;DHT22;8435;52.184;5.406;2023-11-19T05:01:28;14.10;99.90
16643;DHT22;8435;52.184;5.406;2023-11-19T05:03:56;14.10;99.90
16643;DHT22;8435;52.184;5.406;2023-11-19T05:06:26;14.00;99.90
16643;DHT22;8435;52.184;5.406;2023-11-19T05:08:53;14.00;99.90
16643;DHT22;8435;52.184;5.406;2023-11-19T05:11:20;14.00;99.90
16643;DHT22;8435;52.184;5.406;2023-11-19T05:13:47;14.00;99.90
16643;DHT22;8435;52.184;5.406;2023-11-19T05:16:14;14.00;99.90
16643;DHT22;8435;52.184;5.406;2023-11-19T05:18:41;14.00;99.90
16643;DHT22;8435;52.184;5.406;2023-11-19T05:21:09;14.00;99.90
16643;DHT22;8435;52.184;5.406;2023-11-19T05:23:36;14.10;99.90
16643;DHT22;8435;52.184;5.406;2023-11-19T05:26:03;14.00;99.90
16643;DHT22;8435;52.184;5.406;2023-11-19T05:28:30;14.10;99.90
16643;DHT22;8435;52.184;5.406;2023-11-19T05:30:57;14.10;99.90
16643;DHT22;8435;52.184;5.406;2023-11-19T05:33:24;14.00;99.90
16643;DHT22;8435;52.184;5.406;2023-11-19T05:35:51;14.10;99.90
16643;DHT22;8435;52.184;5.406;2023-11-19T05:38:19;14.10;99.90
16643;DHT22;8435;52.184;5.406;2023-11-19T05:40:46;14.10;99.90
16643;DHT22;8435;52.184;5.406;2023-11-19T05:43:14;14.10;99.90
16643;DHT22;8435;52.184;5.406;2023-11-19T05:45:42;14.00;99.90
16643;DHT22;8435;52.184;5.406;2023-11-19T05:48:09;14.00;99.90
16643;DHT22;8435;52.184;5.406;2023-11-19T05:50:36;14.00;99.90
16643;DHT22;8435;52.184;5.406;2023-11-19T05:53:03;14.00;99.90
16643;DHT22;8435;52.184;5.406;2023-11-19T05:55:33;14.00;99.90
16643;DHT22;8435;52.184;5.406;2023-11-19T05:58:00;13.90;99.90
16643;DHT22;8435;52.184;5.406;2023-11-19T06:00:28;13.90;99.90
16643;DHT22;8435;52.184;5.406;2023-11-19T06:02:56;13.90;99.90
16643;DHT22;8435;52.184;5.406;2023-11-19T06:05:22;13.80;99.90
16643;DHT22;8435;52.184;5.406;2023-11-19T06:07:49;13.80;99.90
16643;DHT22;8435;52.184;5.406;2023-11-19T06:10:17;13.80;99.90
16643;DHT22;8435;52.184;5.406;2023-11-19T06:12:46;13.80;99.90
16643;DHT22;8435;52.184;5.406;2023-11-19T06:15:13;13.80;99.90
16643;DHT22;8435;52.184;5.406;2023-11-19T06:17:40;13.80;99.90
16643;DHT22;8435;52.184;5.406;2023-11-19T06:20:07;13.80;99.90
16643;DHT22;8435;52.184;5.406;2023-11-19T06:22:37;13.80;99.90
16643;DHT22;8435;52.184;5.406;2023-11-19T06:25:04;13.80;99.90
16643;DHT22;8435;52.184;5.406;2023-11-19T06:27:32;13.80;99.90
16643;DHT22;8435;52.184;5.406;2023-11-19T06:30:01;13.80;99.90
16643;DHT22;8435;52.184;5.406;2023-11-19T06:32:28;13.80;99.90
16643;DHT22;8435;52.184;5.406;2023-11-19T06:34:55;13.80;99.90
16643;DHT22;8435;52.184;5.406;2023-11-19T06:37:22;13.80;99.90
16643;DHT22;8435;52.184;5.406;2023-11-19T06:39:49;13.80;99.90
16643;DHT22;8435;52.184;5.406;2023-11-19T06:42:16;13.80;99.90
16643;DHT22;8435;52.184;5.406;2023-11-19T06:44:42;13.70;99.90
16643;DHT22;8435;52.184;5.406;2023-11-19T06:47:11;13.70;99.90
16643;DHT22;8435;52.184;5.406;2023-11-19T06:49:37;13.70;99.90
16643;DHT22;8435;52.184;5.406;2023-11-19T06:52:04;13.70;99.90
16643;DHT22;8435;52.184;5.406;2023-11-19T06:54:31;13.70;99.90
16643;DHT22;8435;52.184;5.406;2023-11-19T06:56:58;13.70;99.90
16643;DHT22;8435;52.184;5.406;2023-11-19T06:59:25;13.70;99.90
16643;DHT22;8435;52.184;5.406;2023-11-19T07:01:52;13.70;99.90
16643;DHT22;8435;52.184;5.406;2023-11-19T07:04:20;13.70;99.90
16643;DHT22;8435;52.184;5.406;2023-11-19T07:06:47;13.80;99.90
16643;DHT22;8435;52.184;5.406;2023-11-19T07:09:14;13.80;99.90
16643;DHT22;8435;52.184;5.406;2023-11-19T07:11:42;13.80;99.90
16643;DHT22;8435;52.184;5.406;2023-11-19T07:14:09;13.80;99.90
16643;DHT22;8435;52.184;5.406;2023-11-19T07:16:37;13.80;99.90
16643;DHT22;8435;52.184;5.406;2023-11-19T07:19:05;13.80;99.90
16643;DHT22;8435;52.184;5.406;2023-11-19T07:21:33;13.80;99.90
16643;DHT22;8435;52.184;5.406;2023-11-19T07:24:01;13.80;99.90
16643;DHT22;8435;52.184;5.406;2023-11-19T07:26:28;13.80;99.90
16643;DHT22;8435;52.184;5.406;2023-11-19T07:28:55;13.90;99.90
16643;DHT22;8435;52.184;5.406;2023-11-19T07:31:22;13.90;99.90
16643;DHT22;8435;52.184;5.406;2023-11-19T07:33:49;13.90;99.90
16643;DHT22;8435;52.184;5.406;2023-11-19T07:36:16;13.90;99.90
16643;DHT22;8435;52.184;5.406;2023-11-19T07:38:45;13.90;99.90
16643;DHT22;8435;52.184;5.406;2023-11-19T07:41:13;13.90;99.90
16643;DHT22;8435;52.184;5.406;2023-11-19T07:43:40;14.00;99.90
16643;DHT22;8435;52.184;5.406;2023-11-19T07:46:10;14.00;99.90
16643;DHT22;8435;52.184;5.406;2023-11-19T07:48:38;14.00;99.90
16643;DHT22;8435;52.184;5.406;2023-11-19T07:51:05;14.00;99.90
16643;DHT22;8435;52.184;5.406;2023-11-19T07:53:32;14.10;99.90
16643;DHT22;8435;52.184;5.406;2023-11-19T07:56:01;14.10;99.90
16643;DHT22;8435;52.184;5.406;2023-11-19T07:58:26;14.10;99.90
16643;DHT22;8435;52.184;5.406;2023-11-19T08:00:53;14.20;99.90
16643;DHT22;8435;52.184;5.406;2023-11-19T08:03:20;14.20;99.90
16643;DHT22;8435;52.184;5.406;2023-11-19T08:05:48;14.20;99.90
16643;DHT22;8435;52.184;5.406;2023-11-19T08:08:15;14.30;99.90
16643;DHT22;8435;52.184;5.406;2023-11-19T08:10:42;14.30;99.90
16643;DHT22;8435;52.184;5.406;2023-11-19T08:13:10;14.30;99.90
16643;DHT22;8435;52.184;5.406;2023-11-19T08:15:37;14.40;99.90
16643;DHT22;8435;52.184;5.406;2023-11-19T08:18:04;14.40;99.90
16643;DHT22;8435;52.184;5.406;2023-11-19T08:20:32;14.50;99.90
16643;DHT22;8435;52.184;5.406;2023-11-19T08:22:59;14.50;99.90
16643;DHT22;8435;52.184;5.406;2023-11-19T08:25:26;14.60;99.90
16643;DHT22;8435;52.184;5.406;2023-11-19T08:27:53;14.60;99.90
16643;DHT22;8435;52.184;5.406;2023-11-19T08:30:21;14.60;99.90
16643;DHT22;8435;52.184;5.406;2023-11-19T08:32:48;14.70;99.90
16643;DHT22;8435;52.184;5.406;2023-11-19T08:35:15;14.70;99.90
16643;DHT22;8435;52.184;5.406;2023-11-19T08:37:42;14.70;99.90
16643;DHT22;8435;52.184;5.406;2023-11-19T08:40:11;14.70;99.90
16643;DHT22;8435;52.184;5.406;2023-11-19T08:42:40;14.80;99.90
16643;DHT22;8435;52.184;5.406;2023-11-19T08:45:07;14.80;99.90
16643;DHT22;8435;52.184;5.406;2023-11-19T08:47:37;14.90;99.90
16643;DHT22;8435;52.184;5.406;2023-11-19T08:50:06;14.90;99.90
16643;DHT22;8435;52.184;5.406;2023-11-19T08:52:36;15.00;99.90
16643;DHT22;8435;52.184;5.406;2023-11-19T08:55:03;15.10;99.90
16643;DHT22;8435;52.184;5.406;2023-11-19T08:57:31;15.10;99.90
16643;DHT22;8435;52.184;5.406;2023-11-19T08:59:59;15.10;99.90
16643;DHT22;8435;52.184;5.406;2023-11-19T09:02:26;15.10;99.90
16643;DHT22;8435;52.184;5.406;2023-11-19T09:04:54;15.10;99.90
16643;DHT22;8435;52.184;5.406;2023-11-19T09:07:21;15.10;99.90
16643;DHT22;8435;52.184;5.406;2023-11-19T09:09:47;15.10;99.90
16643;DHT22;8435;52.184;5.406;2023-11-19T09:12:14;15.20;99.90
16643;DHT22;8435;52.184;5.406;2023-11-19T09:14:41;15.10;99.90
16643;DHT22;8435;52.184;5.406;2023-11-19T09:17:08;15.20;99.90
16643;DHT22;8435;52.184;5.406;2023-11-19T09:19:36;15.20;99.90
16643;DHT22;8435;52.184;5.406;2023-11-19T09:22:04;15.20;99.90
16643;DHT22;8435;52.184;5.406;2023-11-19T09:24:31;15.20;99.90
16643;DHT22;8435;52.184;5.406;2023-11-19T09:26:59;15.20;99.90
16643;DHT22;8435;52.184;5.406;2023-11-19T09:29:26;15.20;99.90
16643;DHT22;8435;52.184;5.406;2023-11-19T09:31:52;15.20;99.90
16643;DHT22;8435;52.184;5.406;2023-11-19T09:34:19;15.30;99.90
16643;DHT22;8435;52.184;5.406;2023-11-19T09:36:46;15.20;99.90
16643;DHT22;8435;52.184;5.406;2023-11-19T09:39:14;15.30;99.90
16643;DHT22;8435;52.184;5.406;2023-11-19T09:41:43;15.30;99.90
16643;DHT22;8435;52.184;5.406;2023-11-19T09:44:11;15.30;99.90
16643;DHT22;8435;52.184;5.406;2023-11-19T09:46:38;15.30;99.90
16643;DHT22;8435;52.184;5.406;2023-11-19T09:49:05;15.30;99.90
16643;DHT22;8435;52.184;5.406;2023-11-19T09:51:34;15.30;99.90
16643;DHT22;8435;52.184;5.406;2023-11-19T09:54:01;15.30;99.90
16643;DHT22;8435;52.184;5.406;2023-11-19T09:56:29;15.40;99.90
16643;DHT22;8435;52.184;5.406;2023-11-19T09:58:57;15.40;99.90
16643;DHT22;8435;52.184;5.406;2023-11-19T10:01:24;15.30;99.90
16643;DHT22;8435;52.184;5.406;2023-11-19T10:03:52;15.40;99.90
16643;DHT22;8435;52.184;5.406;2023-11-19T10:06:23;15.40;99.90
16643;DHT22;8435;52.184;5.406;2023-11-19T10:08:52;15.40;99.90
16643;DHT22;8435;52.184;5.406;2023-11-19T10:11:19;15.30;99.90
16643;DHT22;8435;52.184;5.406;2023-11-19T10:13:47;15.40;99.90
16643;DHT22;8435;52.184;5.406;2023-11-19T10:16:15;15.40;99.90
16643;DHT22;8435;52.184;5.406;2023-11-19T10:18:45;15.40;99.90
16643;DHT22;8435;52.184;5.406;2023-11-19T10:21:13;15.60;99.90
16643;DHT22;8435;52.184;5.406;2023-11-19T10:23:49;15.60;99.90
16643;DHT22;8435;52.184;5.406;2023-11-19T10:26:17;15.60;99.90
16643;DHT22;8435;52.184;5.406;2023-11-19T10:28:44;15.70;99.90
16643;DHT22;8435;52.184;5.406;2023-11-19T10:31:13;15.70;99.90
16643;DHT22;8435;52.184;5.406;2023-11-19T10:33:41;15.70;99.90
16643;DHT22;8435;52.184;5.406;2023-11-19T10:36:08;15.80;99.90
16643;DHT22;8435;52.184;5.406;2023-11-19T10:38:35;15.80;99.90
16643;DHT22;8435;52.184;5.406;2023-11-19T10:41:02;15.80;99.90
16643;DHT22;8435;52.184;5.406;2023-11-19T10:43:45;15.90;99.90
16643;DHT22;8435;52.184;5.406;2023-11-19T10:46:14;16.00;99.90
16643;DHT22;8435;52.184;5.406;2023-11-19T10:48:46;16.00;99.90
16643;DHT22;8435;52.184;5.406;2023-11-19T10:51:14;16.00;99.90
16643;DHT22;8435;52.184;5.406;2023-11-19T10:53:47;16.00;99.90
16643;DHT22;8435;52.184;5.406;2023-11-19T10:56:16;16.10;99.90
16643;DHT22;8435;52.184;5.406;2023-11-19T10:58:45;16.20;99.90
16643;DHT22;8435;52.184;5.406;2023-11-19T11:01:15;16.30;99.90
16643;DHT22;8435;52.184;5.406;2023-11-19T11:03:44;16.30;99.90
16643;DHT22;8435;52.184;5.406;2023-11-19T11:06:13;16.30;99.90
16643;DHT22;8435;52.184;5.406;2023-11-19T11:08:40;16.50;99.90
16643;DHT22;8435;52.184;5.406;2023-11-19T11:11:08;16.50;99.90
16643;DHT22;8435;52.184;5.406;2023-11-19T11:13:37;16.50;99.90
16643;DHT22;8435;52.184;5.406;2023-11-19T11:16:07;16.60;99.90
16643;DHT22;8435;52.184;5.406;2023-11-19T11:18:36;16.70;99.90
16643;DHT22;8435;52.184;5.406;2023-11-19T11:21:06;16.70;99.90
16643;DHT22;8435;52.184;5.406;2023-11-19T11:26:50;16.80;99.90
16643;DHT22;8435;52.184;5.406;2023-11-19T11:29:26;16.80;99.90
16643;DHT22;8435;52.184;5.406;2023-11-19T11:32:02;16.90;99.90
16643;DHT22;8435;52.184;5.406;2023-11-19T11:34:46;16.90;99.90
16643;DHT22;8435;52.184;5.406;2023-11-19T11:37:18;16.90;99.90
16643;DHT22;8435;52.184;5.406;2023-11-19T11:39:50;16.90;99.90
16643;DHT22;8435;52.184;5.406;2023-11-19T11:42:35;16.90;99.90
16643;DHT22;8435;52.184;5.406;2023-11-19T11:45:04;16.90;99.90
16643;DHT22;8435;52.184;5.406;2023-11-19T11:50:50;16.90;99.90
16643;DHT22;8435;52.184;5.406;2023-11-19T11:53:18;16.90;99.90
16643;DHT22;8435;52.184;5.406;2023-11-19T11:56:03;16.80;99.90
16643;DHT22;8435;52.184;5.406;2023-11-19T11:58:35;16.80;99.90
16643;DHT22;8435;52.184;5.406;2023-11-19T12:01:04;16.80;99.90
16643;DHT22;8435;52.184;5.406;2023-11-19T12:03:32;16.80;99.90
16643;DHT22;8435;52.184;5.406;2023-11-19T12:06:00;16.80;99.90
16643;DHT22;8435;52.184;5.406;2023-11-19T12:08:29;16.80;99.90
16643;DHT22;8435;52.184;5.406;2023-11-19T12:10:58;16.80;99.90
16643;DHT22;8435;52.184;5.406;2023-11-19T12:16:13;16.70;99.90
16643;DHT22;8435;52.184;5.406;2023-11-19T12:18:40;16.70;99.90
16643;DHT22;8435;52.184;5.406;2023-11-19T12:21:09;16.70;99.90
16643;DHT22;8435;52.184;5.406;2023-11-19T12:23:47;16.70;99.90
16643;DHT22;8435;52.184;5.406;2023-11-19T12:26:34;16.70;99.90
16643;DHT22;8435;52.184;5.406;2023-11-19T12:29:01;16.70;99.90
16643;DHT22;8435;52.184;5.406;2023-11-19T12:31:32;16.70;99.90
16643;DHT22;8435;52.184;5.406;2023-11-19T12:34:05;16.70;99.90
16643;DHT22;8435;52.184;5.406;2023-11-19T12:36:33;16.80;99.90
16643;DHT22;8435;52.184;5.406;2023-11-19T12:39:01;16.80;99.90
16643;DHT22;8435;52.184;5.406;2023-11-19T12:41:27;16.80;99.90
16643;DHT22;8435;52.184;5.406;2023-11-19T12:44:03;16.80;99.90
16643;DHT22;8435;52.184;5.406;2023-11-19T12:46:35;16.90;99.90
16643;DHT22;8435;52.184;5.406;2023-11-19T12:49:02;16.80;99.90
16643;DHT22;8435;52.184;5.406;2023-11-19T12:51:32;16.80;99.90
16643;DHT22;8435;52.184;5.406;2023-11-19T12:53:59;16.80;99.90
16643;DHT22;8435;52.184;5.406;2023-11-19T12:56:26;16.70;99.90
16643;DHT22;8435;52.184;5.406;2023-11-19T12:58:52;16.70;99.90
16643;DHT22;8435;52.184;5.406;2023-11-19T13:01:20;16.70;99.90
16643;DHT22;8435;52.184;5.406;2023-11-19T13:03:47;16.60;99.90
16643;DHT22;8435;52.184;5.406;2023-11-19T13:06:17;16.60;99.90
16643;DHT22;8435;52.184;5.406;2023-11-19T13:08:49;16.60;99.90
16643;DHT22;8435;52.184;5.406;2023-11-19T13:11:31;16.50;99.90
16643;DHT22;8435;52.184;5.406;2023-11-19T13:13:59;16.50;99.90
16643;DHT22;8435;52.184;5.406;2023-11-19T13:16:27;16.50;99.90
16643;DHT22;8435;52.184;5.406;2023-11-19T13:18:54;16.50;99.90
16643;DHT22;8435;52.184;5.406;2023-11-19T13:21:22;16.40;99.90
16643;DHT22;8435;52.184;5.406;2023-11-19T13:23:50;16.40;99.90
16643;DHT22;8435;52.184;5.406;2023-11-19T13:26:17;16.40;99.90
16643;DHT22;8435;52.184;5.406;2023-11-19T13:28:44;16.40;99.90
16643;DHT22;8435;52.184;5.406;2023-11-19T13:31:12;16.30;99.90
16643;DHT22;8435;52.184;5.406;2023-11-19T13:33:42;16.30;99.90
16643;DHT22;8435;52.184;5.406;2023-11-19T13:36:10;16.30;99.90
16643;DHT22;8435;52.184;5.406;2023-11-19T13:38:37;16.30;99.90
16643;DHT22;8435;52.184;5.406;2023-11-19T13:41:08;16.30;99.90
16643;DHT22;8435;52.184;5.406;2023-11-19T13:43:35;16.20;99.90
16643;DHT22;8435;52.184;5.406;2023-11-19T13:46:02;16.20;99.90
16643;DHT22;8435;52.184;5.406;2023-11-19T13:48:29;16.20;99.90
16643;DHT22;8435;52.184;5.406;2023-11-19T13:50:56;16.10;99.90
16643;DHT22;8435;52.184;5.406;2023-11-19T13:53:23;16.10;99.90
16643;DHT22;8435;52.184;5.406;2023-11-19T13:55:50;16.10;99.90
16643;DHT22;8435;52.184;5.406;2023-11-19T13:58:18;16.10;99.90
16643;DHT22;8435;52.184;5.406;2023-11-19T14:00:45;16.10;99.90
16643;DHT22;8435;52.184;5.406;2023-11-19T14:03:12;16.10;99.90
16643;DHT22;8435;52.184;5.406;2023-11-19T14:05:39;16.00;99.90
16643;DHT22;8435;52.184;5.406;2023-11-19T14:08:06;16.00;99.90
16643;DHT22;8435;52.184;5.406;2023-11-19T14:10:37;16.00;99.90
16643;DHT22;8435;52.184;5.406;2023-11-19T14:13:05;16.00;99.90
16643;DHT22;8435;52.184;5.406;2023-11-19T14:15:34;16.00;99.90
16643;DHT22;8435;52.184;5.406;2023-11-19T14:18:01;16.00;99.90
16643;DHT22;8435;52.184;5.406;2023-11-19T14:20:28;16.00;99.90
16643;DHT22;8435;52.184;5.406;2023-11-19T14:22:55;16.00;99.90
16643;DHT22;8435;52.184;5.406;2023-11-19T14:25:23;16.00;99.90
16643;DHT22;8435;52.184;5.406;2023-11-19T14:27:49;16.00;99.90
16643;DHT22;8435;52.184;5.406;2023-11-19T14:30:17;16.00;99.90
16643;DHT22;8435;52.184;5.406;2023-11-19T14:32:47;16.10;99.90
16643;DHT22;8435;52.184;5.406;2023-11-19T14:35:18;16.10;99.90
16643;DHT22;8435;52.184;5.406;2023-11-19T14:37:45;16.00;99.90
16643;DHT22;8435;52.184;5.406;2023-11-19T14:40:14;16.00;99.90
16643;DHT22;8435;52.184;5.406;2023-11-19T14:42:41;16.10;99.90
16643;DHT22;8435;52.184;5.406;2023-11-19T14:45:09;16.00;99.90
16643;DHT22;8435;52.184;5.406;2023-11-19T14:47:37;16.00;99.90
16643;DHT22;8435;52.184;5.406;2023-11-19T14:50:07;16.00;99.90
16643;DHT22;8435;52.184;5.406;2023-11-19T14:52:34;16.00;99.90
16643;DHT22;8435;52.184;5.406;2023-11-19T14:55:01;16.00;99.90
16643;DHT22;8435;52.184;5.406;2023-11-19T14:57:28;15.90;99.90
16643;DHT22;8435;52.184;5.406;2023-11-19T14:59:55;15.90;99.90
16643;DHT22;8435;52.184;5.406;2023-11-19T15:02:22;15.90;99.90
16643;DHT22;8435;52.184;5.406;2023-11-19T15:04:48;15.80;99.90
16643;DHT22;8435;52.184;5.406;2023-11-19T15:07:17;15.80;99.90
16643;DHT22;8435;52.184;5.406;2023-11-19T15:09:44;15.80;99.90
16643;DHT22;8435;52.184;5.406;2023-11-19T15:12:11;15.80;99.90
16643;DHT22;8435;52.184;5.406;2023-11-19T15:14:38;15.80;99.90
16643;DHT22;8435;52.184;5.406;2023-11-19T15:17:04;15.80;99.90
16643;DHT22;8435;52.184;5.406;2023-11-19T15:19:33;15.80;99.90
16643;DHT22;8435;52.184;5.406;2023-11-19T15:22:00;15.70;99.90
16643;DHT22;8435;52.184;5.406;2023-11-19T15:24:31;15.70;99.90
16643;DHT22;8435;52.184;5.406;2023-11-19T15:26:58;15.70;99.90
16643;DHT22;8435;52.184;5.406;2023-11-19T15:29:24;15.70;99.90
16643;DHT22;8435;52.184;5.406;2023-11-19T15:31:51;15.70;99.90
16643;DHT22;8435;52.184;5.406;2023-11-19T15:34:18;15.70;99.90
16643;DHT22;8435;52.184;5.406;2023-11-19T15:36:45;15.70;99.90
16643;DHT22;8435;52.184;5.406;2023-11-19T15:39:12;15.70;99.90
16643;DHT22;8435;52.184;5.406;2023-11-19T15:41:41;15.70;99.90
16643;DHT22;8435;52.184;5.406;2023-11-19T15:44:08;15.70;99.90
16643;DHT22;8435;52.184;5.406;2023-11-19T15:46:34;15.70;99.90
16643;DHT22;8435;52.184;5.406;2023-11-19T15:49:02;15.60;99.90
16643;DHT22;8435;52.184;5.406;2023-11-19T15:51:29;15.60;99.90
16643;DHT22;8435;52.184;5.406;2023-11-19T15:53:56;15.60;99.90
16643;DHT22;8435;52.184;5.406;2023-11-19T15:56:22;15.60;99.90
16643;DHT22;8435;52.184;5.406;2023-11-19T15:58:50;15.60;99.90